createdAt,value
2023-02-23T00:00:06.399Z,48.28
2023-02-23T00:01:06.414Z,48.24
2023-02-23T00:02:06.415Z,48.2
2023-02-23T00:03:06.414Z,48.24
2023-02-23T00:04:06.400Z,48.2
2023-02-23T00:05:06.415Z,48.21
2023-02-23T00:06:06.417Z,48.09
2023-02-23T00:07:06.416Z,48.17
2023-02-23T00:08:06.401Z,48.14
2023-02-23T00:09:06.415Z,48.09
2023-02-23T00:10:06.418Z,48.12
2023-02-23T00:11:06.416Z,48.11
2023-02-23T00:12:06.402Z,48.06
2023-02-23T00:13:06.416Z,48.04
2023-02-23T00:14:06.417Z,47.89
2023-02-23T00:15:06.403Z,48.02
2023-02-23T00:16:22.881Z,47.96
2023-02-23T00:17:06.418Z,47.96
2023-02-23T00:18:06.419Z,47.93
2023-02-23T00:19:06.403Z,47.98
2023-02-23T00:20:06.418Z,47.99
2023-02-23T00:21:06.419Z,47.94
2023-02-23T00:22:06.418Z,48.02
2023-02-23T00:23:06.404Z,48.02
2023-02-23T00:24:06.419Z,47.95
2023-02-23T00:25:06.420Z,48.04
2023-02-23T00:26:06.420Z,48.02
2023-02-23T00:27:06.406Z,48.04
2023-02-23T00:28:06.419Z,48.12
2023-02-23T00:29:06.421Z,48.06
2023-02-23T00:30:06.421Z,48.03
2023-02-23T00:31:06.406Z,48.03
2023-02-23T00:32:06.420Z,47.89
2023-02-23T00:33:06.421Z,47.88
2023-02-23T00:34:06.407Z,47.98
2023-02-23T00:35:06.407Z,47.86
2023-02-23T00:36:06.422Z,47.86
2023-02-23T00:37:06.423Z,47.88
2023-02-23T00:38:06.407Z,48.04
2023-02-23T00:39:06.409Z,48.03
2023-02-23T00:40:06.423Z,48.03
2023-02-23T00:41:06.423Z,48.09
2023-02-23T00:42:06.408Z,48.04
2023-02-23T00:43:06.423Z,48.03
2023-02-23T00:44:06.424Z,47.8
2023-02-23T00:45:06.423Z,47.9
2023-02-23T00:46:06.409Z,47.92
2023-02-23T00:47:06.423Z,47.96
2023-02-23T00:48:06.425Z,47.74
2023-02-23T00:49:06.425Z,47.85
2023-02-23T00:50:06.410Z,47.82
2023-02-23T00:51:06.424Z,47.78
2023-02-23T00:52:06.425Z,47.88
2023-02-23T00:53:06.412Z,47.91
2023-02-23T00:54:06.411Z,47.95
2023-02-23T00:55:06.426Z,48.01
2023-02-23T00:56:06.426Z,48.09
2023-02-23T00:57:06.411Z,48.1
2023-02-23T00:58:06.413Z,47.98
2023-02-23T00:59:06.427Z,48.12
2023-02-23T01:00:06.474Z,48.09
2023-02-23T01:01:06.412Z,48.13
2023-02-23T01:02:06.427Z,48.11
2023-02-23T01:03:06.427Z,48.22
2023-02-23T01:04:06.427Z,48.14
2023-02-23T01:05:06.413Z,48.12
2023-02-23T01:06:06.427Z,48.12
2023-02-23T01:07:06.471Z,48.18
2023-02-23T01:08:06.428Z,48.14
2023-02-23T01:09:06.414Z,48.13
2023-02-23T01:10:06.428Z,48.03
2023-02-23T01:11:06.429Z,47.95
2023-02-23T01:12:06.430Z,48.1
2023-02-23T01:13:06.415Z,48.07
2023-02-23T01:14:06.430Z,48.06
2023-02-23T01:15:06.430Z,48.19
2023-02-23T01:16:06.415Z,47.93
2023-02-23T01:17:06.417Z,47.85
2023-02-23T01:18:06.431Z,47.81
2023-02-23T01:19:06.432Z,47.85
2023-02-23T01:20:06.417Z,47.81
2023-02-23T01:21:06.431Z,47.81
2023-02-23T01:22:06.431Z,47.84
2023-02-23T01:23:06.431Z,47.92
2023-02-23T01:24:06.417Z,47.76
2023-02-23T01:25:06.431Z,47.72
2023-02-23T01:26:06.432Z,47.82
2023-02-23T01:27:06.432Z,47.7
2023-02-23T01:28:06.418Z,47.7
2023-02-23T01:29:06.432Z,47.75
2023-02-23T01:30:06.434Z,47.79
2023-02-23T01:31:06.434Z,47.79
2023-02-23T01:32:06.419Z,47.92
2023-02-23T01:33:06.433Z,47.88
2023-02-23T01:34:06.435Z,47.96
2023-02-23T01:35:06.419Z,48.05
2023-02-23T01:36:06.420Z,47.99
2023-02-23T01:37:06.435Z,48.04
2023-02-23T01:38:06.436Z,48.12
2023-02-23T01:39:06.420Z,48.08
2023-02-23T01:40:06.421Z,48.12
2023-02-23T01:41:06.436Z,48.15
2023-02-23T01:42:06.435Z,48.2
2023-02-23T01:43:06.421Z,48.1
2023-02-23T01:44:06.435Z,48.1
2023-02-23T01:45:06.436Z,47.97
2023-02-23T01:46:06.436Z,47.99
2023-02-23T01:47:06.422Z,48.05
2023-02-23T01:48:06.436Z,48.08
2023-02-23T01:49:06.437Z,47.98
2023-02-23T01:50:06.437Z,47.98
2023-02-23T01:51:06.423Z,47.95
2023-02-23T01:52:06.437Z,47.81
2023-02-23T01:53:06.438Z,47.89
2023-02-23T01:54:06.423Z,47.92
2023-02-23T01:55:06.424Z,47.82
2023-02-23T01:56:22.916Z,47.9
2023-02-23T01:57:06.440Z,47.72
2023-02-23T01:58:06.424Z,47.58
2023-02-23T01:59:06.424Z,47.57
2023-02-23T02:00:06.439Z,47.57
2023-02-23T02:01:06.463Z,47.45
2023-02-23T02:02:06.425Z,47.53
2023-02-23T02:03:06.439Z,47.55
2023-02-23T02:04:06.440Z,47.65
2023-02-23T02:05:06.441Z,47.5
2023-02-23T02:07:06.440Z,47.51
2023-02-23T02:08:06.491Z,47.49
2023-02-23T02:09:06.441Z,47.59
2023-02-23T02:10:06.427Z,47.51
2023-02-23T02:11:06.441Z,47.5
2023-02-23T02:12:06.443Z,47.57
2023-02-23T02:13:06.441Z,47.55
2023-02-23T02:14:06.429Z,47.53
2023-02-23T02:15:06.467Z,47.58
2023-02-23T02:16:06.443Z,47.65
2023-02-23T02:17:06.428Z,47.58
2023-02-23T02:18:06.428Z,47.58
2023-02-23T02:19:06.443Z,47.84
2023-02-23T02:20:06.444Z,47.86
2023-02-23T02:21:06.429Z,47.89
2023-02-23T02:22:06.467Z,47.97
2023-02-23T02:23:06.444Z,48.06
2023-02-23T02:24:06.445Z,47.93
2023-02-23T02:25:06.430Z,48.05
2023-02-23T02:26:06.444Z,47.96
2023-02-23T02:27:06.445Z,47.81
2023-02-23T02:28:06.444Z,47.87
2023-02-23T02:29:06.431Z,47.75
2023-02-23T02:30:06.445Z,47.65
2023-02-23T02:31:06.447Z,47.71
2023-02-23T02:32:06.445Z,47.73
2023-02-23T02:33:06.432Z,47.63
2023-02-23T02:34:06.446Z,47.67
2023-02-23T02:35:06.448Z,47.6
2023-02-23T02:36:06.432Z,47.5
2023-02-23T02:37:06.432Z,47.3
2023-02-23T02:38:06.448Z,47.11
2023-02-23T02:39:06.449Z,47.23
2023-02-23T02:40:06.433Z,47.14
2023-02-23T02:41:06.433Z,47.12
2023-02-23T02:42:06.448Z,47.22
2023-02-23T02:43:06.449Z,47.23
2023-02-23T02:44:06.434Z,47.25
2023-02-23T02:45:06.448Z,47.27
2023-02-23T02:46:06.449Z,47.4
2023-02-23T02:47:06.448Z,47.25
2023-02-23T02:48:06.435Z,47.28
2023-02-23T02:49:06.450Z,47.17
2023-02-23T02:50:06.451Z,47.35
2023-02-23T02:51:06.450Z,47.23
2023-02-23T02:52:06.436Z,47.32
2023-02-23T02:53:06.450Z,47.41
2023-02-23T02:54:06.452Z,47.36
2023-02-23T02:55:06.451Z,47.29
2023-02-23T02:56:06.436Z,47.31
2023-02-23T02:57:06.452Z,47.16
2023-02-23T02:58:06.452Z,47.48
2023-02-23T02:59:06.437Z,47.33
2023-02-23T03:00:06.437Z,47.33
2023-02-23T03:01:06.452Z,47.41
2023-02-23T03:02:06.453Z,47.39
2023-02-23T03:03:06.438Z,47.32
2023-02-23T03:04:06.452Z,47.31
2023-02-23T03:05:06.453Z,47.3
2023-02-23T03:06:06.453Z,47.33
2023-02-23T03:07:06.439Z,47.22
2023-02-23T03:08:06.453Z,47.2
2023-02-23T03:09:06.480Z,47.31
2023-02-23T03:10:06.454Z,47.28
2023-02-23T03:11:06.440Z,47.34
2023-02-23T03:12:06.454Z,47.35
2023-02-23T03:13:06.456Z,47.47
2023-02-23T03:14:06.454Z,47.48
2023-02-23T03:15:06.440Z,47.44
2023-02-23T03:16:06.503Z,47.48
2023-02-23T03:17:06.457Z,47.6
2023-02-23T03:18:06.441Z,47.33
2023-02-23T03:19:06.441Z,47.34
2023-02-23T03:20:06.455Z,47.43
2023-02-23T03:21:06.457Z,47.32
2023-02-23T03:22:06.443Z,47.39
2023-02-23T03:23:06.482Z,47.41
2023-02-23T03:24:06.457Z,47.44
2023-02-23T03:25:06.458Z,47.32
2023-02-23T03:26:06.443Z,47.33
2023-02-23T03:27:06.457Z,47.26
2023-02-23T03:28:06.458Z,47.16
2023-02-23T03:29:06.458Z,47.24
2023-02-23T03:30:06.444Z,47.37
2023-02-23T03:31:06.458Z,47.47
2023-02-23T03:32:06.459Z,47.61
2023-02-23T03:33:06.458Z,47.59
2023-02-23T03:34:06.445Z,47.51
2023-02-23T03:35:06.459Z,47.32
2023-02-23T03:36:22.937Z,47.46
2023-02-23T03:37:06.445Z,47.47
2023-02-23T03:38:06.445Z,47.43
2023-02-23T03:39:06.459Z,47.51
2023-02-23T03:41:06.446Z,47.37
2023-02-23T03:42:06.446Z,47.38
2023-02-23T03:43:06.461Z,47.38
2023-02-23T03:44:06.509Z,47.34
2023-02-23T03:45:06.447Z,47.27
2023-02-23T03:46:06.461Z,47.27
2023-02-23T03:47:06.462Z,47.16
2023-02-23T03:48:06.461Z,47.27
2023-02-23T03:49:06.448Z,47.22
2023-02-23T03:50:06.462Z,47.24
2023-02-23T03:51:06.505Z,47.39
2023-02-23T03:52:06.463Z,47.33
2023-02-23T03:53:06.449Z,47.31
2023-02-23T03:54:06.463Z,47.28
2023-02-23T03:55:06.464Z,47.4
2023-02-23T03:56:06.463Z,47.4
2023-02-23T03:57:06.449Z,47.45
2023-02-23T03:58:06.465Z,47.5
2023-02-23T03:59:06.466Z,47.57
2023-02-23T04:00:06.450Z,47.5
2023-02-23T04:01:06.451Z,47.44
2023-02-23T04:02:06.464Z,47.45
2023-02-23T04:03:06.467Z,47.54
2023-02-23T04:04:06.451Z,47.58
2023-02-23T04:05:06.465Z,47.62
2023-02-23T04:06:06.466Z,47.44
2023-02-23T04:07:06.465Z,47.59
2023-02-23T04:08:06.452Z,47.68
2023-02-23T04:09:06.466Z,47.61
2023-02-23T04:10:06.466Z,47.64
2023-02-23T04:11:06.466Z,47.85
2023-02-23T04:12:06.453Z,47.75
2023-02-23T04:13:06.467Z,47.82
2023-02-23T04:14:06.469Z,47.86
2023-02-23T04:15:06.467Z,47.79
2023-02-23T04:16:06.453Z,47.79
2023-02-23T04:17:06.492Z,47.9
2023-02-23T04:18:06.470Z,47.83
2023-02-23T04:19:06.454Z,47.86
2023-02-23T04:20:06.454Z,47.7
2023-02-23T04:21:06.469Z,47.81
2023-02-23T04:22:06.470Z,47.75
2023-02-23T04:23:06.455Z,47.61
2023-02-23T04:24:06.493Z,47.57
2023-02-23T04:25:06.470Z,47.46
2023-02-23T04:26:06.470Z,47.52
2023-02-23T04:27:06.456Z,47.5
2023-02-23T04:28:06.470Z,47.52
2023-02-23T04:29:06.471Z,47.53
2023-02-23T04:30:06.470Z,47.59
2023-02-23T04:31:06.457Z,47.58
2023-02-23T04:32:06.471Z,47.66
2023-02-23T04:33:06.472Z,47.54
2023-02-23T04:34:06.471Z,47.66
2023-02-23T04:35:06.457Z,47.55
2023-02-23T04:36:06.472Z,47.69
2023-02-23T04:37:06.474Z,47.67
2023-02-23T04:38:06.458Z,47.57
2023-02-23T04:39:06.458Z,47.7
2023-02-23T04:40:06.473Z,47.71
2023-02-23T04:41:06.475Z,47.76
2023-02-23T04:42:06.459Z,47.74
2023-02-23T04:43:06.459Z,47.73
2023-02-23T04:44:06.474Z,47.74
2023-02-23T04:45:06.474Z,47.75
2023-02-23T04:46:06.460Z,47.77
2023-02-23T04:47:06.474Z,47.78
2023-02-23T04:48:06.475Z,47.78
2023-02-23T04:49:06.474Z,47.77
2023-02-23T04:50:06.461Z,47.66
2023-02-23T04:51:06.475Z,47.72
2023-02-23T04:52:06.477Z,47.69
2023-02-23T04:53:06.475Z,47.66
2023-02-23T04:54:06.462Z,47.63
2023-02-23T04:55:06.476Z,47.74
2023-02-23T04:56:06.477Z,47.66
2023-02-23T04:57:06.489Z,47.75
2023-02-23T04:58:06.462Z,47.76
2023-02-23T04:59:06.476Z,48.05
2023-02-23T05:01:06.463Z,47.86
2023-02-23T05:02:06.463Z,47.93
2023-02-23T05:03:06.478Z,48.11
2023-02-23T05:04:06.542Z,48.09
2023-02-23T05:05:06.464Z,48.01
2023-02-23T05:06:06.478Z,47.94
2023-02-23T05:07:06.479Z,47.75
2023-02-23T05:08:06.479Z,47.89
2023-02-23T05:09:06.465Z,47.81
2023-02-23T05:10:06.479Z,47.74
2023-02-23T05:11:06.505Z,47.7
2023-02-23T05:12:06.480Z,47.8
2023-02-23T05:13:06.466Z,47.69
2023-02-23T05:14:06.481Z,47.68
2023-02-23T05:15:06.481Z,47.5
2023-02-23T05:16:22.958Z,47.6
2023-02-23T05:17:06.466Z,47.62
2023-02-23T05:18:06.504Z,47.66
2023-02-23T05:19:06.483Z,47.66
2023-02-23T05:20:06.467Z,47.73
2023-02-23T05:21:06.468Z,47.66
2023-02-23T05:22:06.481Z,47.59
2023-02-23T05:23:06.484Z,47.59
2023-02-23T05:24:06.468Z,47.56
2023-02-23T05:25:06.506Z,47.55
2023-02-23T05:26:06.483Z,47.76
2023-02-23T05:27:06.483Z,47.7
2023-02-23T05:28:06.469Z,47.6
2023-02-23T05:29:06.483Z,47.61
2023-02-23T05:30:06.484Z,47.66
2023-02-23T05:31:06.484Z,47.68
2023-02-23T05:32:06.469Z,47.61
2023-02-23T05:33:06.484Z,47.45
2023-02-23T05:34:06.486Z,47.62
2023-02-23T05:35:06.484Z,47.57
2023-02-23T05:36:06.470Z,47.53
2023-02-23T05:37:06.485Z,47.43
2023-02-23T05:38:06.487Z,47.53
2023-02-23T05:39:06.471Z,47.5
2023-02-23T05:40:06.471Z,47.5
2023-02-23T05:41:06.486Z,47.61
2023-02-23T05:42:06.488Z,47.56
2023-02-23T05:43:06.472Z,47.39
2023-02-23T05:44:06.472Z,47.48
2023-02-23T05:45:06.487Z,47.58
2023-02-23T05:46:06.487Z,47.49
2023-02-23T05:47:06.473Z,47.62
2023-02-23T05:48:06.488Z,47.68
2023-02-23T05:49:06.488Z,47.82
2023-02-23T05:50:06.487Z,47.79
2023-02-23T05:51:06.473Z,47.86
2023-02-23T05:52:06.488Z,47.81
2023-02-23T05:53:06.490Z,47.78
2023-02-23T05:54:06.488Z,47.91
2023-02-23T05:55:06.475Z,47.83
2023-02-23T05:56:06.488Z,47.8
2023-02-23T05:57:06.491Z,47.68
2023-02-23T05:58:06.490Z,47.71
2023-02-23T05:59:06.476Z,47.71
2023-02-23T06:00:06.490Z,47.62
2023-02-23T06:01:06.491Z,47.65
2023-02-23T06:02:06.476Z,47.7
2023-02-23T06:03:06.476Z,47.66
2023-02-23T06:04:06.491Z,47.73
2023-02-23T06:05:06.492Z,47.61
2023-02-23T06:06:06.478Z,47.74
2023-02-23T06:07:06.491Z,47.72
2023-02-23T06:08:06.492Z,47.83
2023-02-23T06:09:06.491Z,47.83
2023-02-23T06:10:06.477Z,47.75
2023-02-23T06:11:06.492Z,47.7
2023-02-23T06:12:06.519Z,47.88
2023-02-23T06:13:06.493Z,47.9
2023-02-23T06:14:06.478Z,47.83
2023-02-23T06:15:06.492Z,47.68
2023-02-23T06:16:06.495Z,47.54
2023-02-23T06:17:06.493Z,47.67
2023-02-23T06:18:06.480Z,47.62
2023-02-23T06:19:06.542Z,47.6
2023-02-23T06:20:06.494Z,47.6
2023-02-23T06:21:06.480Z,47.57
2023-02-23T06:22:06.480Z,47.65
2023-02-23T06:23:06.494Z,47.52
2023-02-23T06:24:06.496Z,47.71
2023-02-23T06:25:06.481Z,47.55
2023-02-23T06:26:06.495Z,47.53
2023-02-23T06:27:06.496Z,47.57
2023-02-23T06:28:06.495Z,47.62
2023-02-23T06:29:06.481Z,47.55
2023-02-23T06:30:06.496Z,47.71
2023-02-23T06:31:06.496Z,47.55
2023-02-23T06:32:06.496Z,47.57
2023-02-23T06:33:06.482Z,47.52
2023-02-23T06:34:06.496Z,47.5
2023-02-23T06:35:06.499Z,47.48
2023-02-23T06:36:06.497Z,47.4
2023-02-23T06:37:06.483Z,47.28
2023-02-23T06:38:06.497Z,47.13
2023-02-23T06:39:06.499Z,47.15
2023-02-23T06:40:06.484Z,47.28
2023-02-23T06:41:06.485Z,47.1
2023-02-23T06:42:06.499Z,47.25
2023-02-23T06:43:06.500Z,47.04
2023-02-23T06:44:06.485Z,47.05
2023-02-23T06:45:06.485Z,47.03
2023-02-23T06:46:06.499Z,46.93
2023-02-23T06:47:06.500Z,47.08
2023-02-23T06:48:06.485Z,46.93
2023-02-23T06:49:06.500Z,46.9
2023-02-23T06:50:06.501Z,46.92
2023-02-23T06:51:06.501Z,46.86
2023-02-23T06:52:06.486Z,46.94
2023-02-23T06:53:06.500Z,46.98
2023-02-23T06:54:06.503Z,46.94
2023-02-23T06:55:06.501Z,46.74
2023-02-23T06:56:22.965Z,46.99
2023-02-23T06:57:06.501Z,46.98
2023-02-23T06:58:06.503Z,46.89
2023-02-23T06:59:06.502Z,46.81
2023-02-23T07:00:06.488Z,46.9
2023-02-23T07:01:06.503Z,46.83
2023-02-23T07:02:06.503Z,46.9
2023-02-23T07:03:06.489Z,46.78
2023-02-23T07:04:06.489Z,46.87
2023-02-23T07:05:06.504Z,46.84
2023-02-23T07:06:06.505Z,46.98
2023-02-23T07:07:06.489Z,46.98
2023-02-23T07:08:06.504Z,46.97
2023-02-23T07:09:06.505Z,46.82
2023-02-23T07:10:06.504Z,46.92
2023-02-23T07:11:06.491Z,46.88
2023-02-23T07:12:06.505Z,46.87
2023-02-23T07:13:06.505Z,46.91
2023-02-23T07:14:06.506Z,46.95
2023-02-23T07:15:06.491Z,46.9
2023-02-23T07:16:06.506Z,46.93
2023-02-23T07:17:06.508Z,46.98
2023-02-23T07:18:06.506Z,47.23
2023-02-23T07:19:06.493Z,47.35
2023-02-23T07:20:06.506Z,47.23
2023-02-23T07:21:06.507Z,47.24
2023-02-23T07:22:06.494Z,47.39
2023-02-23T07:23:06.493Z,47.25
2023-02-23T07:24:06.507Z,47.2
2023-02-23T07:25:06.508Z,47.12
2023-02-23T07:26:06.494Z,47.13
2023-02-23T07:27:06.494Z,47.09
2023-02-23T07:28:06.509Z,47.08
2023-02-23T07:29:06.508Z,47.12
2023-02-23T07:30:06.494Z,46.93
2023-02-23T07:31:06.509Z,46.91
2023-02-23T07:32:06.509Z,46.9
2023-02-23T07:33:06.509Z,46.88
2023-02-23T07:34:06.495Z,46.84
2023-02-23T07:35:06.511Z,46.83
2023-02-23T07:36:06.512Z,47.06
2023-02-23T07:37:06.510Z,46.96
2023-02-23T07:38:06.496Z,47.11
2023-02-23T07:39:06.510Z,47.29
2023-02-23T07:40:06.513Z,47.26
2023-02-23T07:41:06.498Z,47.28
2023-02-23T07:42:06.497Z,47.33
2023-02-23T07:43:06.512Z,47.46
2023-02-23T07:44:06.512Z,47.18
2023-02-23T07:45:06.498Z,47.1
2023-02-23T07:46:06.499Z,47.03
2023-02-23T07:47:06.512Z,46.89
2023-02-23T07:48:06.513Z,47.05
2023-02-23T07:49:06.500Z,46.98
2023-02-23T07:50:06.513Z,46.97
2023-02-23T07:51:06.514Z,46.94
2023-02-23T07:52:06.514Z,46.99
2023-02-23T07:53:06.499Z,47.1
2023-02-23T07:54:06.514Z,47.13
2023-02-23T07:55:06.516Z,47.12
2023-02-23T07:56:06.515Z,47.1
2023-02-23T07:57:06.500Z,47.11
2023-02-23T07:58:06.515Z,46.98
2023-02-23T07:59:06.516Z,47.15
2023-02-23T08:00:06.515Z,47.17
2023-02-23T08:01:06.501Z,47.08
2023-02-23T08:02:06.515Z,47.12
2023-02-23T08:03:06.517Z,46.9
2023-02-23T08:04:06.502Z,46.82
2023-02-23T08:05:06.502Z,46.76
2023-02-23T08:06:06.516Z,46.77
2023-02-23T08:07:06.540Z,46.64
2023-02-23T08:08:06.503Z,46.61
2023-02-23T08:09:06.517Z,46.57
2023-02-23T08:10:06.517Z,46.48
2023-02-23T08:11:06.517Z,46.54
2023-02-23T08:12:06.504Z,46.54
2023-02-23T08:13:06.519Z,46.43
2023-02-23T08:14:06.569Z,46.38
2023-02-23T08:15:06.518Z,46.66
2023-02-23T08:16:06.504Z,46.51
2023-02-23T08:17:06.519Z,46.47
2023-02-23T08:18:06.521Z,46.62
2023-02-23T08:19:06.519Z,46.34
2023-02-23T08:20:06.505Z,46.33
2023-02-23T08:21:06.544Z,46.39
2023-02-23T08:22:06.521Z,46.39
2023-02-23T08:23:06.506Z,46.31
2023-02-23T08:24:06.506Z,46.25
2023-02-23T08:25:06.520Z,46.11
2023-02-23T08:26:06.522Z,46.31
2023-02-23T08:27:06.507Z,46.14
2023-02-23T08:28:06.545Z,46.07
2023-02-23T08:29:06.522Z,45.97
2023-02-23T08:30:06.523Z,46.06
2023-02-23T08:31:06.508Z,46.09
2023-02-23T08:32:06.522Z,46.03
2023-02-23T08:33:06.523Z,46.03
2023-02-23T08:34:06.523Z,45.76
2023-02-23T08:35:06.509Z,45.84
2023-02-23T08:36:23.000Z,45.93
2023-02-23T08:37:06.525Z,46.17
2023-02-23T08:38:06.525Z,46.16
2023-02-23T08:39:06.511Z,46.14
2023-02-23T08:40:06.524Z,46.04
2023-02-23T08:41:06.526Z,46.04
2023-02-23T08:42:06.510Z,45.94
2023-02-23T08:43:06.511Z,45.92
2023-02-23T08:44:06.526Z,45.95
2023-02-23T08:45:06.526Z,45.82
2023-02-23T08:46:06.511Z,45.87
2023-02-23T08:47:06.512Z,45.81
2023-02-23T08:48:06.527Z,45.9
2023-02-23T08:49:06.550Z,46.02
2023-02-23T08:50:06.512Z,46.01
2023-02-23T08:51:06.527Z,46
2023-02-23T08:52:06.528Z,46.01
2023-02-23T08:53:06.527Z,45.85
2023-02-23T08:54:06.513Z,45.89
2023-02-23T08:55:06.528Z,45.85
2023-02-23T08:56:06.580Z,45.98
2023-02-23T08:57:06.528Z,45.92
2023-02-23T08:58:06.514Z,45.88
2023-02-23T08:59:06.529Z,45.78
2023-02-23T09:00:06.530Z,45.95
2023-02-23T09:01:06.530Z,45.77
2023-02-23T09:02:06.515Z,45.78
2023-02-23T09:03:06.553Z,45.86
2023-02-23T09:04:06.532Z,45.9
2023-02-23T09:05:06.516Z,45.73
2023-02-23T09:06:06.516Z,45.78
2023-02-23T09:07:06.530Z,45.78
2023-02-23T09:08:06.533Z,45.68
2023-02-23T09:09:06.518Z,45.57
2023-02-23T09:10:06.572Z,45.45
2023-02-23T09:11:06.532Z,45.52
2023-02-23T09:12:06.533Z,45.4
2023-02-23T09:13:06.518Z,45.33
2023-02-23T09:14:06.532Z,45.51
2023-02-23T09:15:06.533Z,45.43
2023-02-23T09:16:06.533Z,45.29
2023-02-23T09:17:06.519Z,45.27
2023-02-23T09:18:06.533Z,45.18
2023-02-23T09:19:06.534Z,45.36
2023-02-23T09:20:06.535Z,45.13
2023-02-23T09:22:06.534Z,44.96
2023-02-23T09:23:23.014Z,45.17
2023-02-23T09:24:33.021Z,45.29
2023-02-23T09:25:43.027Z,45.26
2023-02-23T09:26:53.035Z,45.19
2023-02-23T09:28:03.044Z,45.11
2023-02-23T09:28:54.523Z,44.88
2023-02-23T09:29:29.526Z,44.8
2023-02-23T09:30:06.536Z,44.72
2023-02-23T09:31:06.537Z,44.72
2023-02-23T09:32:06.537Z,44.56
2023-02-23T09:33:06.523Z,44.68
2023-02-23T09:34:06.537Z,44.62
2023-02-23T09:35:06.538Z,44.76
2023-02-23T09:36:06.538Z,44.66
2023-02-23T09:37:06.524Z,44.71
2023-02-23T09:38:06.539Z,44.78
2023-02-23T09:39:06.539Z,44.91
2023-02-23T09:40:06.525Z,45.13
2023-02-23T09:41:06.525Z,45.25
2023-02-23T09:42:06.540Z,45.28
2023-02-23T09:43:06.541Z,45.6
2023-02-23T09:44:06.526Z,45.32
2023-02-23T09:45:06.526Z,45.23
2023-02-23T09:46:06.541Z,45.3
2023-02-23T09:47:06.565Z,45.24
2023-02-23T09:48:06.527Z,45.41
2023-02-23T09:49:06.542Z,45.56
2023-02-23T09:50:06.542Z,45.65
2023-02-23T09:51:06.543Z,45.67
2023-02-23T09:52:06.529Z,45.61
2023-02-23T09:53:06.542Z,45.54
2023-02-23T09:54:06.593Z,45.93
2023-02-23T09:55:06.543Z,45.69
2023-02-23T09:56:06.529Z,45.8
2023-02-23T09:57:06.544Z,45.75
2023-02-23T09:58:06.545Z,45.77
2023-02-23T09:59:06.544Z,45.97
2023-02-23T10:00:06.531Z,46.12
2023-02-23T10:01:06.545Z,46.13
2023-02-23T10:02:06.545Z,46.12
2023-02-23T10:03:06.532Z,46.36
2023-02-23T10:04:06.531Z,46.53
2023-02-23T10:05:06.547Z,46.78
2023-02-23T10:06:06.547Z,46.54
2023-02-23T10:07:06.532Z,46.47
2023-02-23T10:08:06.546Z,46.41
2023-02-23T10:09:06.547Z,46.38
2023-02-23T10:10:06.547Z,46.31
2023-02-23T10:11:06.533Z,46.28
2023-02-23T10:12:06.547Z,46.52
2023-02-23T10:13:06.548Z,46.6
2023-02-23T10:14:06.548Z,46.8
2023-02-23T10:15:23.012Z,46.72
2023-02-23T10:16:06.548Z,46.67
2023-02-23T10:17:06.549Z,46.3
2023-02-23T10:18:06.550Z,46.2
2023-02-23T10:19:06.535Z,46.08
2023-02-23T10:20:06.549Z,46.01
2023-02-23T10:21:06.551Z,45.87
2023-02-23T10:22:06.537Z,45.87
2023-02-23T10:23:06.536Z,45.77
2023-02-23T10:24:06.551Z,45.66
2023-02-23T10:25:06.552Z,45.66
2023-02-23T10:26:06.537Z,45.75
2023-02-23T10:27:06.537Z,45.62
2023-02-23T10:28:06.552Z,45.75
2023-02-23T10:29:06.576Z,45.79
2023-02-23T10:30:06.538Z,45.77
2023-02-23T10:31:06.552Z,45.8
2023-02-23T10:32:06.553Z,45.9
2023-02-23T10:33:06.553Z,45.8
2023-02-23T10:34:06.539Z,45.47
2023-02-23T10:35:06.553Z,45.09
2023-02-23T10:36:06.605Z,44.98
2023-02-23T10:37:06.555Z,44.91
2023-02-23T10:38:06.541Z,44.68
2023-02-23T10:39:06.555Z,44.63
2023-02-23T10:40:06.557Z,44.54
2023-02-23T10:41:06.555Z,44.36
2023-02-23T10:42:06.541Z,44.62
2023-02-23T10:43:06.581Z,44.89
2023-02-23T10:44:06.558Z,45.25
2023-02-23T10:45:06.542Z,45.53
2023-02-23T10:46:06.543Z,45.58
2023-02-23T10:47:06.558Z,45.65
2023-02-23T10:48:06.559Z,45.95
2023-02-23T10:49:06.543Z,45.94
2023-02-23T10:50:06.568Z,46
2023-02-23T10:51:06.558Z,45.98
2023-02-23T10:52:06.558Z,46.28
2023-02-23T10:53:06.545Z,46.25
2023-02-23T10:54:06.559Z,46.46
2023-02-23T10:55:06.560Z,46.62
2023-02-23T10:56:06.560Z,47
2023-02-23T10:57:06.546Z,47.16
2023-02-23T10:58:06.560Z,47.25
2023-02-23T10:59:06.562Z,47.21
2023-02-23T11:00:06.561Z,47.14
2023-02-23T11:01:06.547Z,47.34
2023-02-23T11:02:06.562Z,47.55
2023-02-23T11:03:06.563Z,47.64
2023-02-23T11:04:06.548Z,47.87
2023-02-23T11:05:06.548Z,47.99
2023-02-23T11:06:06.562Z,47.89
2023-02-23T11:07:06.565Z,47.72
2023-02-23T11:08:06.549Z,47.63
2023-02-23T11:09:06.549Z,47.52
2023-02-23T11:10:06.563Z,47.29
2023-02-23T11:11:06.565Z,47.36
2023-02-23T11:12:06.551Z,47.06
2023-02-23T11:13:06.564Z,46.78
2023-02-23T11:14:06.566Z,46.52
2023-02-23T11:15:06.566Z,46.21
2023-02-23T11:16:06.551Z,46.38
2023-02-23T11:17:06.566Z,46.6
2023-02-23T11:18:06.568Z,46.62
2023-02-23T11:19:06.566Z,46.42
2023-02-23T11:20:06.552Z,46.43
2023-02-23T11:21:06.568Z,46.51
2023-02-23T11:22:06.568Z,46.53
2023-02-23T11:23:06.569Z,46.48
2023-02-23T11:24:06.554Z,46.56
2023-02-23T11:25:06.569Z,46.7
2023-02-23T11:26:06.570Z,46.65
2023-02-23T11:27:06.554Z,46.48
2023-02-23T11:28:06.555Z,46.68
2023-02-23T11:29:06.569Z,46.9
2023-02-23T11:30:06.593Z,46.89
2023-02-23T11:31:06.556Z,46.9
2023-02-23T11:32:06.570Z,46.95
2023-02-23T11:33:06.571Z,47.01
2023-02-23T11:34:06.571Z,46.76
2023-02-23T11:35:06.557Z,46.68
2023-02-23T11:36:06.571Z,46.57
2023-02-23T11:37:06.622Z,46.52
2023-02-23T11:38:06.572Z,46.25
2023-02-23T11:39:06.558Z,46.07
2023-02-23T11:40:06.572Z,46.13
2023-02-23T11:41:06.574Z,45.88
2023-02-23T11:42:06.574Z,45.48
2023-02-23T11:43:06.560Z,45.47
2023-02-23T11:44:06.597Z,45.37
2023-02-23T11:45:06.574Z,45
2023-02-23T11:46:06.561Z,45.12
2023-02-23T11:47:06.560Z,45.26
2023-02-23T11:48:06.575Z,45.35
2023-02-23T11:49:06.577Z,45.61
2023-02-23T11:50:06.561Z,45.82
2023-02-23T11:51:06.599Z,45.79
2023-02-23T11:52:06.577Z,45.39
2023-02-23T11:53:06.576Z,45.41
2023-02-23T11:54:06.562Z,45.32
2023-02-23T11:55:23.054Z,45.37
2023-02-23T11:56:06.578Z,45.32
2023-02-23T11:57:06.577Z,45.21
2023-02-23T11:58:06.563Z,45.01
2023-02-23T11:59:06.580Z,44.86
2023-02-23T12:00:06.579Z,44.66
2023-02-23T12:01:06.578Z,44.26
2023-02-23T12:02:06.565Z,44.13
2023-02-23T12:03:06.579Z,44.04
2023-02-23T12:04:06.580Z,44.37
2023-02-23T12:05:06.566Z,44.5
2023-02-23T12:06:06.566Z,44.51
2023-02-23T12:07:06.581Z,44.71
2023-02-23T12:08:06.582Z,44.62
2023-02-23T12:09:06.567Z,44.39
2023-02-23T12:10:06.567Z,44.31
2023-02-23T12:11:06.581Z,44.14
2023-02-23T12:12:06.591Z,44.4
2023-02-23T12:13:06.568Z,44.57
2023-02-23T12:14:06.583Z,44.69
2023-02-23T12:15:06.584Z,44.8
2023-02-23T12:16:06.584Z,44.83
2023-02-23T12:17:06.570Z,44.98
2023-02-23T12:18:06.584Z,45.22
2023-02-23T12:19:06.585Z,45.34
2023-02-23T12:20:06.584Z,45.37
2023-02-23T12:21:06.571Z,45.36
2023-02-23T12:22:06.585Z,45.26
2023-02-23T12:23:06.587Z,45.04
2023-02-23T12:24:06.586Z,44.82
2023-02-23T12:25:06.572Z,44.61
2023-02-23T12:26:06.587Z,44.58
2023-02-23T12:27:06.589Z,44.23
2023-02-23T12:28:06.573Z,43.99
2023-02-23T12:29:06.573Z,43.81
2023-02-23T12:30:06.588Z,43.88
2023-02-23T12:31:06.589Z,43.88
2023-02-23T12:32:06.574Z,43.9
2023-02-23T12:33:06.589Z,43.83
2023-02-23T12:34:06.590Z,43.72
2023-02-23T12:35:06.589Z,43.93
2023-02-23T12:36:06.576Z,43.98
2023-02-23T12:37:06.590Z,44.1
2023-02-23T12:38:06.617Z,44.1
2023-02-23T12:39:06.591Z,44.12
2023-02-23T12:40:06.577Z,43.96
2023-02-23T12:41:06.591Z,43.88
2023-02-23T12:42:06.593Z,44.11
2023-02-23T12:43:06.593Z,44.31
2023-02-23T12:44:06.580Z,44.34
2023-02-23T12:45:06.642Z,44.44
2023-02-23T12:46:06.595Z,44.37
2023-02-23T12:47:06.580Z,44.55
2023-02-23T12:48:06.580Z,44.68
2023-02-23T12:49:06.595Z,44.68
2023-02-23T12:50:06.597Z,44.88
2023-02-23T12:51:06.581Z,45.43
2023-02-23T12:52:06.620Z,45.94
2023-02-23T12:53:06.597Z,46.06
2023-02-23T12:54:06.596Z,46.31
2023-02-23T12:55:06.582Z,46.41
2023-02-23T12:56:06.597Z,46.44
2023-02-23T12:57:06.598Z,46.64
2023-02-23T12:58:06.598Z,46.53
2023-02-23T12:59:06.584Z,46.66